Time;durP1;ratioP1;P1;durP2;ratioP2;P2;SDS_P1;SDS_P2;PMS_P1;PMS_P2;Temp;Humidity;BMP_temperature;BMP_pressure;BME280_temperature;BME280_humidity;BME280_pressure;Samples;Min_cycle;Max_cycle;Signal;HPM_P1;HPM_P2
2023/02/12 00:01:22;;;;;;;95.87;41.27;;;5.30;99.90;;;4.17;100.00;99269.38;5130018;27;20394;-76
2023/02/12 00:03:48;;;;;;;82.35;37.50;;;5.30;99.90;;;4.08;100.00;99274.78;5133049;27;20479;-76
2023/02/12 00:06:15;;;;;;;73.65;35.38;;;5.20;99.90;;;4.07;100.00;99276.56;5133054;27;20398;-76
2023/02/12 00:08:42;;;;;;;94.77;41.60;;;5.20;99.90;;;4.07;100.00;99276.56;5132954;27;20471;-76
2023/02/12 00:11:12;;;;;;;84.45;37.58;;;5.20;99.90;;;4.09;100.00;99277.25;5114140;27;20449;-76
2023/02/12 00:13:38;;;;;;;78.47;36.38;;;5.20;99.90;;;4.03;100.00;99277.91;5132654;27;20883;-76
2023/02/12 00:16:07;;;;;;;80.57;36.40;;;5.20;99.90;;;4.07;100.00;99275.75;5132793;27;20926;-76
2023/02/12 00:18:33;;;;;;;78.05;35.47;;;5.20;99.90;;;4.10;100.00;99278.88;5132563;27;20417;-76
2023/02/12 00:20:59;;;;;;;98.23;38.90;;;5.20;99.90;;;4.14;100.00;99284.59;5132609;27;20850;-76
2023/02/12 00:23:25;;;;;;;88.70;38.30;;;5.30;99.90;;;4.13;100.00;99281.19;5132566;27;20410;-75
2023/02/12 00:25:53;;;;;;;83.53;38.03;;;5.30;99.90;;;4.10;100.00;99286.75;5132837;27;20394;-76
2023/02/12 00:28:19;;;;;;;77.75;36.80;;;5.20;99.90;;;4.05;100.00;99288.22;5132630;27;20439;-76
2023/02/12 00:30:45;;;;;;;74.03;35.30;;;5.20;99.90;;;4.01;100.00;99286.91;5132024;27;20398;-76
2023/02/12 00:33:11;;;;;;;70.47;34.13;;;5.10;99.90;;;4.00;100.00;99278.22;5132384;27;20406;-76
2023/02/12 00:35:37;;;;;;;82.88;37.35;;;5.20;99.90;;;3.99;100.00;99283.59;5114042;27;20406;-76
2023/02/12 00:38:03;;;;;;;74.65;36.10;;;5.10;99.90;;;4.01;100.00;99285.09;5132529;27;20747;-76
2023/02/12 00:40:29;;;;;;;80.68;36.20;;;5.10;99.90;;;4.03;100.00;99292.81;5132257;27;20479;-76
2023/02/12 00:42:56;;;;;;;79.23;35.50;;;5.20;99.90;;;4.08;100.00;99299.19;5132077;27;20399;-76
2023/02/12 00:45:22;;;;;;;96.07;40.35;;;5.20;99.90;;;4.09;100.00;99294.75;5132357;27;20399;-76
2023/02/12 00:47:48;;;;;;;88.00;41.07;;;5.20;99.90;;;4.09;100.00;99302.63;5132287;27;20488;-77
2023/02/12 00:50:14;;;;;;;91.50;38.72;;;5.20;99.90;;;4.12;100.00;99307.56;5132068;27;20429;-76
2023/02/12 00:52:40;;;;;;;96.03;39.95;;;5.20;99.90;;;4.11;100.00;99304.13;5129211;27;20387;-76
2023/02/12 00:55:06;;;;;;;83.67;39.83;;;5.30;99.90;;;4.06;100.00;99305.59;5132199;27;20757;-76
2023/02/12 00:57:32;;;;;;;80.38;38.75;;;5.20;99.90;;;4.04;100.00;99304.94;5132025;27;20443;-76
2023/02/12 00:59:59;;;;;;;94.40;42.33;;;5.10;99.90;;;3.99;100.00;99305.41;5131784;27;20907;-76
2023/02/12 01:02:25;;;;;;;81.53;40.50;;;5.10;99.90;;;3.99;100.00;99308.00;5131853;27;20391;-76
2023/02/12 01:04:51;;;;;;;77.28;39.25;;;5.10;99.90;;;3.95;100.00;99306.72;5130681;27;20399;-76
2023/02/12 01:07:17;;;;;;;87.43;41.42;;;5.10;99.90;;;3.93;100.00;99300.81;5131751;27;20883;-76
2023/02/12 01:09:43;;;;;;;93.27;41.77;;;5.10;99.90;;;3.89;100.00;99296.88;5131663;27;20422;-76
2023/02/12 01:12:09;;;;;;;91.35;42.28;;;5.00;99.90;;;3.94;100.00;99306.88;5131709;27;20395;-76
2023/02/12 01:14:35;;;;;;;87.50;39.63;;;5.10;99.90;;;3.89;100.00;99299.50;5131838;27;20960;-76
2023/02/12 01:17:02;;;;;;;81.30;39.72;;;5.00;99.90;;;3.89;100.00;99295.09;5113335;27;20413;-76
2023/02/12 01:19:28;;;;;;;79.45;40.22;;;5.00;99.90;;;3.85;100.00;99298.16;5113020;27;20919;-76
2023/02/12 01:21:54;;;;;;;87.82;41.80;;;5.00;99.90;;;3.89;100.00;99302.94;5131419;27;20488;-76
2023/02/12 01:24:20;;;;;;;98.43;42.60;;;5.00;99.90;;;3.94;100.00;99301.63;5128714;27;20851;-76
2023/02/12 01:26:46;;;;;;;96.85;43.38;;;5.10;99.90;;;3.99;100.00;99308.00;5131497;27;20394;-76
2023/02/12 01:29:12;;;;;;;88.10;40.00;;;5.10;99.90;;;4.03;100.00;99301.47;5131498;27;20759;-76
2023/02/12 01:31:38;;;;;;;118.15;48.42;;;5.10;99.90;;;4.00;100.00;99293.94;5131086;27;20394;-76
2023/02/12 01:34:07;;;;;;;85.63;42.17;;;5.10;99.90;;;3.94;100.00;99294.59;5131289;27;20793;-76
2023/02/12 01:36:33;;;;;;;86.30;40.30;;;5.10;99.90;;;3.97;100.00;99303.94;5131210;27;20401;-76
2023/02/12 01:39:01;;;;;;;101.75;42.45;;;5.10;99.90;;;4.00;100.00;99301.78;5131115;27;20414;-76
2023/02/12 01:41:30;;;;;;;120.50;47.30;;;5.20;99.90;;;4.01;100.00;99300.00;5130972;27;20399;-76
2023/02/12 01:44:14;;;;;;;91.05;43.20;;;5.20;99.90;;;3.95;100.00;99298.84;5130330;27;20460;-76
2023/02/12 01:46:40;;;;;;;90.72;42.95;;;5.10;99.90;;;3.95;100.00;99300.66;5131093;27;20413;-76
2023/02/12 01:49:14;;;;;;;107.55;46.33;;;5.10;99.90;;;3.95;100.00;99285.75;5131187;27;20383;-76
2023/02/12 01:51:41;;;;;;;89.45;43.60;;;5.10;99.90;;;3.93;100.00;99286.88;5130686;27;20390;-76
2023/02/12 01:54:11;;;;;;;92.20;42.78;;;5.10;99.90;;;3.92;100.00;99287.88;5131004;27;20401;-76
2023/02/12 01:56:38;;;;;;;95.28;41.95;;;5.00;99.90;;;3.96;100.00;99290.00;5130961;27;20958;-76
2023/02/12 01:59:04;;;;;;;91.53;42.25;;;5.10;99.90;;;3.99;100.00;99291.47;5130984;27;20407;-76
2023/02/12 02:01:32;;;;;;;96.15;42.33;;;5.10;99.90;;;4.04;100.00;99289.22;5130410;27;20930;-76
2023/02/12 02:04:04;;;;;;;104.07;42.87;;;5.20;99.90;;;4.07;100.00;99281.81;5130737;27;20399;-76
2023/02/12 02:06:37;;;;;;;95.03;42.97;;;5.20;99.90;;;4.02;100.00;99281.50;5130829;27;20492;-76
2023/02/12 02:09:03;;;;;;;87.18;39.60;;;5.20;99.90;;;4.02;100.00;99288.53;5128140;27;20870;-76
2023/02/12 02:14:32;;;;;;;95.72;40.08;;;5.20;99.90;;;4.06;100.00;99290.66;5129694;27;20385;-76
2023/02/12 02:17:27;;;;;;;97.83;40.53;;;5.20;99.90;;;4.12;100.00;99283.97;5130198;27;20832;-76
2023/02/12 02:20:34;;;;;;;113.18;48.10;;;5.30;99.90;;;4.11;100.00;99282.31;5074991;27;21078;-76
2023/02/12 02:23:50;;;;;;;118.18;49.50;;;5.20;99.90;;;4.02;100.00;99278.88;5130009;27;20745;-76
2023/02/12 02:26:58;;;;;;;94.63;42.38;;;5.20;99.90;;;4.03;100.00;99264.81;5115763;27;20410;-76
2023/02/12 02:29:58;;;;;;;105.07;45.63;;;5.20;99.90;;;4.04;100.00;99263.00;5106021;27;21024;-76
2023/02/12 02:32:31;;;;;;;119.22;48.92;;;5.20;99.90;;;4.03;100.00;99261.34;5127820;27;20399;-76
2023/02/12 02:35:03;;;;;;;94.47;44.42;;;5.20;99.90;;;4.00;100.00;99262.50;5130343;27;20600;-76
2023/02/12 02:37:36;;;;;;;99.72;44.75;;;5.10;99.90;;;4.02;100.00;99265.78;5130312;27;20383;-76
2023/02/12 02:40:11;;;;;;;103.80;47.67;;;5.20;99.90;;;4.00;100.00;99261.66;5127488;27;20513;-76
2023/02/12 02:42:42;;;;;;;102.70;44.60;;;5.10;99.90;;;4.03;100.00;99261.34;5129975;27;20912;-76
2023/02/12 02:45:14;;;;;;;102.45;46.33;;;5.20;99.90;;;3.94;100.00;99257.91;5130269;27;20406;-76
2023/02/12 02:47:46;;;;;;;86.22;42.55;;;5.10;99.90;;;3.94;100.00;99262.31;5130107;27;20395;-76
2023/02/12 02:50:16;;;;;;;95.03;43.58;;;5.00;99.90;;;3.96;100.00;99255.13;5129956;27;20398;-76
2023/02/12 02:52:48;;;;;;;109.70;47.28;;;5.10;99.90;;;3.95;100.00;99263.97;5108598;27;20403;-76
2023/02/12 02:55:18;;;;;;;99.95;45.20;;;5.10;99.90;;;3.96;100.00;99260.38;5129928;27;20411;-76
2023/02/12 02:57:50;;;;;;;106.35;45.35;;;5.10;99.90;;;3.98;100.00;99259.25;5127528;27;20440;-76
2023/02/12 03:00:21;;;;;;;104.18;45.17;;;5.20;99.90;;;4.01;100.00;99258.06;5129861;28;20444;-76
2023/02/12 03:02:54;;;;;;;112.97;46.90;;;5.20;99.90;;;4.02;100.00;99260.53;5125056;28;20391;-76
2023/02/12 03:05:27;;;;;;;115.05;48.83;;;5.20;99.90;;;3.93;100.00;99264.13;5129951;28;20440;-77
2023/02/12 03:07:59;;;;;;;98.53;45.47;;;5.10;99.90;;;3.93;100.00;99258.06;5130009;28;20500;-76
2023/02/12 03:10:31;;;;;;;106.95;44.58;;;5.00;99.90;;;3.95;100.00;99262.19;5108926;28;20840;-76
2023/02/12 03:13:02;;;;;;;102.55;45.00;;;5.10;99.90;;;3.96;100.00;99263.81;5129499;28;20854;-76
2023/02/12 03:15:36;;;;;;;130.82;50.60;;;5.10;99.90;;;3.93;100.00;99261.50;5129906;28;20430;-76
2023/02/12 03:18:08;;;;;;;96.18;44.95;;;5.10;99.90;;;3.94;100.00;99270.19;5127093;28;20890;-76
2023/02/12 03:20:40;;;;;;;97.93;44.05;;;5.10;99.90;;;3.96;100.00;99266.44;5129782;28;20417;-76
2023/02/12 03:23:12;;;;;;;126.05;51.88;;;5.10;99.90;;;3.97;100.00;99265.47;5127400;28;20402;-76
2023/02/12 03:25:46;;;;;;;96.75;45.05;;;5.10;99.90;;;3.95;100.00;99269.22;5129711;28;20391;-76
2023/02/12 03:28:19;;;;;;;95.25;43.03;;;5.10;99.90;;;3.92;100.00;99270.34;5129745;28;20398;-76
2023/02/12 03:30:52;;;;;;;100.72;45.08;;;5.00;99.90;;;3.93;100.00;99271.16;5127111;28;20473;-76
2023/02/12 03:33:29;;;;;;;108.85;47.60;;;5.00;99.90;;;3.86;100.00;99277.06;5129434;28;20403;-76
2023/02/12 03:36:02;;;;;;;90.20;43.20;;;5.00;99.90;;;3.87;100.00;99275.25;5129629;28;20888;-76
2023/02/12 03:38:37;;;;;;;120.35;49.45;;;5.00;99.90;;;3.91;100.00;99265.28;5126699;28;20418;-76
2023/02/12 03:41:09;;;;;;;114.20;51.00;;;5.00;99.90;;;3.90;100.00;99274.94;5128050;28;20406;-76
2023/02/12 03:43:49;;;;;;;107.80;46.60;;;5.00;99.90;;;3.89;100.00;99273.31;5129304;28;20391;-76
2023/02/12 03:46:21;;;;;;;108.27;46.57;;;5.00;99.90;;;3.89;100.00;99274.13;5128667;28;20383;-76
2023/02/12 03:49:00;;;;;;;96.82;46.17;;;5.00;99.90;;;3.80;100.00;99266.41;5127473;28;20803;-76
2023/02/12 03:51:33;;;;;;;88.22;42.60;;;4.90;99.90;;;3.78;100.00;99266.56;5127002;28;20856;-76
2023/02/12 03:54:01;;;;;;;106.38;48.78;;;4.90;99.90;;;3.78;100.00;99277.03;5111037;28;20808;-76
2023/02/12 03:56:36;;;;;;;113.78;47.15;;;4.90;99.90;;;3.83;100.00;99268.72;5129558;28;20741;-76
2023/02/12 03:59:03;;;;;;;106.68;47.17;;;4.90;99.90;;;3.82;100.00;99281.00;5110958;28;20899;-76
2023/02/12 04:01:31;;;;;;;94.18;43.25;;;5.00;99.90;;;3.84;100.00;99272.94;5129183;28;20842;-76
2023/02/12 04:04:01;;;;;;;107.03;44.95;;;5.00;99.90;;;3.87;100.00;99281.31;5129497;28;20387;-76
2023/02/12 04:06:28;;;;;;;103.73;45.33;;;5.00;99.90;;;3.81;100.00;99287.22;5129378;27;20448;-76
2023/02/12 04:09:01;;;;;;;95.38;44.95;;;4.90;99.90;;;3.76;100.00;99289.47;5133088;27;20386;-76
2023/02/12 04:11:38;;;;;;;91.53;43.05;;;4.90;99.90;;;3.81;100.00;99291.63;5130480;27;20397;-76
2023/02/12 04:14:19;;;;;;;111.63;45.80;;;4.90;99.90;;;3.84;100.00;99279.00;5130496;27;20393;-76
2023/02/12 04:16:53;;;;;;;107.80;46.20;;;5.00;99.90;;;3.85;100.00;99275.41;5130442;27;20435;-76
2023/02/12 04:19:34;;;;;;;128.38;49.60;;;5.00;99.90;;;3.87;100.00;99283.13;5132709;27;20406;-76
2023/02/12 04:22:27;;;;;;;109.25;47.00;;;5.00;99.90;;;3.85;100.00;99285.91;5132558;27;20425;-76
2023/02/12 04:25:03;;;;;;;105.22;43.05;;;5.00;99.90;;;3.87;100.00;99285.75;5131512;27;20391;-76
2023/02/12 04:27:40;;;;;;;120.93;47.13;;;5.00;99.90;;;3.92;100.00;99285.25;5131031;27;20752;-76
2023/02/12 04:30:17;;;;;;;132.63;50.83;;;5.10;99.90;;;3.86;100.00;99289.34;5111863;27;20390;-76
2023/02/12 04:32:49;;;;;;;103.10;46.03;;;5.00;99.90;;;3.85;100.00;99290.31;5129883;27;20418;-76
2023/02/12 04:35:24;;;;;;;102.60;45.65;;;5.00;99.90;;;3.85;100.00;99290.31;5132656;27;20849;-76
2023/02/12 04:37:56;;;;;;;113.57;48.38;;;5.00;99.90;;;3.79;100.00;99293.59;5130799;27;20410;-76
2023/02/12 04:40:22;;;;;;;102.65;45.92;;;4.90;99.90;;;3.79;100.00;99293.59;5132244;27;20503;-76
2023/02/12 04:42:51;;;;;;;95.03;43.97;;;4.90;99.90;;;3.79;100.00;99306.69;5132227;27;20402;-76
2023/02/12 04:45:23;;;;;;;100.45;45.25;;;4.90;99.90;;;3.79;100.00;99307.50;5132395;27;20442;-76
2023/02/12 04:47:49;;;;;;;109.03;44.45;;;4.90;99.90;;;3.81;100.00;99308.16;5130629;27;20397;-76
2023/02/12 04:50:17;;;;;;;122.07;50.30;;;4.90;99.90;;;3.80;100.00;99303.09;5113697;27;20450;-76
2023/02/12 04:52:43;;;;;;;117.57;48.53;;;4.90;99.90;;;3.86;100.00;99303.25;5129267;27;20813;-76
2023/02/12 04:55:09;;;;;;;117.13;49.83;;;5.00;99.90;;;3.85;100.00;99314.72;5132355;27;20398;-76
2023/02/12 04:57:35;;;;;;;118.97;48.25;;;5.00;99.90;;;3.86;100.00;99310.28;5132247;27;20451;-76
2023/02/12 05:00:04;;;;;;;110.97;46.42;;;5.00;99.90;;;3.84;100.00;99307.00;5131879;27;20506;-76
2023/02/12 05:02:30;;;;;;;100.72;45.67;;;5.00;99.90;;;3.79;100.00;99317.16;5113437;27;20810;-75
2023/02/12 05:04:56;;;;;;;102.15;44.15;;;4.90;99.90;;;3.79;100.00;99312.75;5131357;27;20399;-75
2023/02/12 05:07:23;;;;;;;117.10;48.10;;;4.90;99.90;;;3.80;100.00;99311.75;5130902;27;20449;-74
2023/02/12 05:12:25;;;;;;;106.93;46.72;;;4.90;99.90;;;3.80;100.00;99300.47;5034669;28;20483;-75
2023/02/12 05:14:50;;;;;;;109.10;48.25;;;4.90;99.90;;;3.79;100.00;99304.88;5042214;28;20458;-75
2023/02/12 05:17:16;;;;;;;120.43;48.93;;;4.90;99.90;;;3.80;100.00;99297.84;5039564;28;20403;-77
2023/02/12 05:19:42;;;;;;;109.35;45.60;;;4.90;99.90;;;3.83;100.00;99305.41;5042171;28;20898;-77
2023/02/12 05:22:08;;;;;;;133.95;51.50;;;5.00;99.90;;;3.84;100.00;99296.53;5030881;28;20448;-76
2023/02/12 05:24:36;;;;;;;117.05;46.95;;;5.00;99.90;;;3.85;100.00;99301.63;5029028;28;20439;-79
2023/02/12 05:27:02;;;;;;;112.10;45.92;;;5.00;99.90;;;3.84;100.00;99299.97;5031390;28;20415;-79
2023/02/12 05:29:28;;;;;;;117.75;48.38;;;5.00;99.90;;;3.85;100.00;99295.56;5015763;28;20522;-79
2023/02/12 05:31:54;;;;;;;123.93;50.13;;;5.00;99.90;;;3.84;100.00;99297.34;5030534;28;20507;-81
2023/02/12 05:34:20;;;;;;;130.35;51.92;;;5.00;99.90;;;3.87;100.00;99301.47;5030739;28;20411;-80
2023/02/12 05:36:46;;;;;;;126.75;50.72;;;5.00;99.90;;;3.84;100.00;99302.59;5030928;28;20449;-80
2023/02/12 05:39:11;;;;;;;118.63;51.90;;;5.00;99.90;;;3.82;100.00;99301.13;5030802;28;20923;-80
2023/02/12 05:41:39;;;;;;;118.75;50.88;;;4.90;99.90;;;3.82;100.00;99307.19;5030584;28;20439;-81
2023/02/12 05:44:05;;;;;;;129.57;53.35;;;5.00;99.90;;;3.83;100.00;99300.94;5028195;28;20491;-79
2023/02/12 05:46:32;;;;;;;122.93;55.15;;;5.00;99.90;;;3.82;100.00;99301.13;5030689;28;20778;-79
2023/02/12 05:48:58;;;;;;;134.00;56.95;;;4.90;99.90;;;3.81;100.00;99302.09;5030656;28;20461;-77
2023/02/12 05:51:26;;;;;;;125.38;53.33;;;5.00;99.90;;;3.83;100.00;99302.78;5027574;28;20816;-80
2023/02/12 05:53:57;;;;;;;119.63;50.63;;;5.00;99.90;;;3.85;100.00;99298.16;5029814;28;20419;-79
2023/02/12 05:56:27;;;;;;;128.52;53.33;;;5.00;99.90;;;3.86;100.00;99300.63;5028211;28;20510;-78
2023/02/12 05:58:56;;;;;;;142.43;57.60;;;5.00;99.90;;;3.88;100.00;99308.34;5030227;28;20426;-77
2023/02/12 06:01:25;;;;;;;150.68;60.10;;;5.00;99.90;;;3.85;100.00;99309.47;5028726;28;20437;-81
2023/02/12 06:03:51;;;;;;;133.85;56.88;;;5.00;99.90;;;3.84;100.00;99317.47;5036356;28;20405;-80
2023/02/12 06:06:17;;;;;;;123.55;53.15;;;5.00;99.90;;;3.83;100.00;99314.03;5030882;28;20907;-80
2023/02/12 06:08:46;;;;;;;124.90;52.77;;;5.00;99.90;;;3.84;100.00;99304.38;5036381;28;20807;-80
2023/02/12 06:11:14;;;;;;;140.77;56.80;;;5.00;99.90;;;3.75;100.00;99305.38;5031781;28;21060;-76
2023/02/12 06:13:40;;;;;;;112.03;51.53;;;4.90;99.90;;;3.75;100.00;99308.00;5014793;28;20424;-84
2023/02/12 06:16:17;;;;;;;119.57;52.03;;;4.90;99.90;;;3.76;100.00;99305.19;5010229;28;20900;-76
2023/02/12 06:18:43;;;;;;;121.78;50.70;;;4.90;99.90;;;3.78;100.00;99302.41;5029434;28;20407;-79
2023/02/12 06:21:09;;;;;;;144.80;55.83;;;4.90;99.90;;;3.78;100.00;99303.25;5029980;28;20414;-80
2023/02/12 06:23:35;;;;;;;148.38;59.65;;;4.90;99.90;;;3.78;100.00;99307.66;5029869;28;20403;-81
2023/02/12 06:26:01;;;;;;;133.55;53.95;;;4.90;99.90;;;3.84;100.00;99305.22;5029889;28;20399;-81
2023/02/12 06:28:27;;;;;;;147.35;55.45;;;5.00;99.90;;;3.88;100.00;99305.72;5029261;28;20461;-81
2023/02/12 06:30:53;;;;;;;142.07;55.78;;;5.00;99.90;;;3.89;100.00;99310.81;5029684;28;20904;-83
2023/02/12 06:33:20;;;;;;;133.88;56.30;;;5.00;99.90;;;3.86;100.00;99305.88;5029638;28;20447;-81
2023/02/12 06:35:46;;;;;;;159.93;66.13;;;5.00;99.90;;;3.85;100.00;99311.25;5027581;28;20522;-82
2023/02/12 06:38:13;;;;;;;129.48;56.30;;;5.00;99.90;;;3.83;100.00;99315.88;5010218;28;20441;-81
2023/02/12 06:40:39;;;;;;;128.32;54.65;;;5.00;99.90;;;3.85;100.00;99322.56;5029610;28;20430;-81
2023/02/12 06:43:05;;;;;;;140.93;55.40;;;5.00;99.90;;;3.89;100.00;99325.69;5027296;28;20411;-78
2023/02/12 06:45:32;;;;;;;138.60;56.20;;;5.00;99.90;;;3.87;100.00;99322.41;5029988;28;20430;-78
2023/02/12 06:47:58;;;;;;;128.38;52.90;;;5.00;99.90;;;3.85;100.00;99330.44;5029528;28;20418;-79
2023/02/12 06:50:25;;;;;;;119.93;50.53;;;5.00;99.90;;;3.86;100.00;99324.22;5030331;28;20420;-80
2023/02/12 06:52:51;;;;;;;132.40;53.60;;;5.00;99.90;;;3.89;100.00;99325.69;5029172;28;20594;-78
2023/02/12 06:55:17;;;;;;;116.65;50.92;;;5.00;99.90;;;3.89;100.00;99326.53;5029861;28;20410;-78
2023/02/12 06:57:43;;;;;;;126.95;51.63;;;5.00;99.90;;;3.89;100.00;99331.75;5030062;28;20424;-76
2023/02/12 07:00:11;;;;;;;135.05;54.30;;;5.00;99.90;;;3.89;100.00;99337.00;5029716;28;20517;-75
2023/02/12 07:02:37;;;;;;;119.53;51.77;;;5.00;99.90;;;3.87;100.00;99341.56;5011723;28;20921;-74
2023/02/12 07:05:03;;;;;;;115.03;48.47;;;5.00;99.90;;;3.91;100.00;99349.91;5029572;28;20399;-73
2023/02/12 07:07:30;;;;;;;132.18;52.15;;;5.00;99.90;;;3.94;100.00;99344.38;5029731;28;20411;-74
2023/02/12 07:09:56;;;;;;;129.95;55.03;;;5.10;99.90;;;3.93;100.00;99334.03;5029625;28;20399;-74
2023/02/12 07:12:22;;;;;;;130.10;52.45;;;5.10;99.90;;;3.96;100.00;99341.59;5028687;28;20409;-76
2023/02/12 07:14:48;;;;;;;120.35;48.80;;;5.10;99.90;;;3.99;100.00;99344.69;5029287;28;20439;-75
2023/02/12 07:17:14;;;;;;;147.23;55.10;;;5.10;99.90;;;4.00;100.00;99348.13;5029608;28;20407;-75
2023/02/12 07:19:40;;;;;;;114.00;50.23;;;5.10;99.90;;;3.99;100.00;99334.22;5029552;28;20947;-76
2023/02/12 07:22:06;;;;;;;112.68;49.40;;;5.10;99.90;;;4.02;100.00;99343.56;5029268;28;20442;-77
2023/02/12 07:24:33;;;;;;;111.57;48.10;;;5.10;99.90;;;4.02;100.00;99341.75;5029525;28;20443;-76
2023/02/12 07:26:59;;;;;;;113.45;48.08;;;5.20;99.90;;;4.05;100.00;99338.00;5010975;28;20793;-74
2023/02/12 07:29:25;;;;;;;109.50;47.05;;;5.20;99.90;;;4.10;100.00;99339.16;5029939;28;20465;-75
2023/02/12 07:31:50;;;;;;;113.72;48.10;;;5.20;99.90;;;4.13;100.00;99341.47;5029621;28;20407;-76
2023/02/12 07:34:16;;;;;;;116.57;47.80;;;5.30;99.90;;;4.16;100.00;99342.94;5032140;28;20525;-76
2023/02/12 07:36:42;;;;;;;125.82;48.75;;;5.30;99.90;;;4.19;100.00;99335.56;5029763;28;20446;-76
2023/02/12 07:39:11;;;;;;;97.35;45.22;;;5.30;99.90;;;4.22;100.00;99343.09;5033889;28;20431;-76
2023/02/12 07:41:39;;;;;;;120.32;50.53;;;5.30;99.90;;;4.26;100.00;99344.44;5032746;28;20430;-76
2023/02/12 07:44:08;;;;;;;104.87;48.07;;;5.30;99.90;;;4.29;100.00;99345.88;5033600;28;20399;-76
2023/02/12 07:46:36;;;;;;;112.35;46.75;;;5.40;99.90;;;4.33;100.00;99344.59;5033594;28;20465;-74
2023/02/12 07:49:05;;;;;;;102.57;45.08;;;5.50;99.90;;;4.40;100.00;99345.56;5034486;28;20430;-76
2023/02/12 07:51:33;;;;;;;102.07;44.92;;;5.50;99.90;;;4.45;100.00;99338.03;5032951;28;20413;-77
2023/02/12 07:54:00;;;;;;;93.82;43.83;;;5.50;99.90;;;4.51;100.00;99342.59;5031986;28;20436;-75
2023/02/12 07:56:31;;;;;;;100.20;47.35;;;5.60;99.90;;;4.55;100.00;99343.13;5025017;28;20406;-76
2023/02/12 07:59:00;;;;;;;97.13;46.55;;;5.70;99.90;;;4.62;100.00;99338.84;5032982;28;20833;-75
2023/02/12 08:01:29;;;;;;;98.75;48.47;;;5.70;99.90;;;4.67;100.00;99339.16;5033019;28;20742;-75
2023/02/12 08:03:58;;;;;;;88.40;44.70;;;5.70;99.90;;;4.73;100.00;99335.91;5033414;28;20464;-75
2023/02/12 08:06:27;;;;;;;86.50;45.45;;;5.80;99.90;;;4.78;100.00;99341.47;5033073;28;20434;-76
2023/02/12 08:08:55;;;;;;;91.35;45.65;;;5.90;99.90;;;4.82;100.00;99334.06;5032817;28;20391;-75
2023/02/12 08:11:21;;;;;;;88.57;44.47;;;5.90;99.90;;;4.87;100.00;99345.72;5032094;28;20422;-75
2023/02/12 08:13:48;;;;;;;85.43;45.08;;;5.90;99.90;;;4.91;100.00;99331.25;5015124;28;20450;-76
2023/02/12 08:16:17;;;;;;;90.32;46.67;;;6.00;99.90;;;4.94;100.00;99333.56;5033297;28;20426;-73
2023/02/12 08:18:44;;;;;;;87.28;43.83;;;6.00;99.90;;;4.99;100.00;99338.31;5030148;28;20767;-73
2023/02/12 08:21:13;;;;;;;86.82;46.55;;;6.10;99.90;;;5.00;100.00;99332.91;5024939;28;20420;-73
2023/02/12 08:23:39;;;;;;;86.53;47.78;;;6.10;99.90;;;5.04;100.00;99341.22;5032466;28;20811;-72
2023/02/12 08:26:08;;;;;;;91.30;49.42;;;6.10;99.90;;;5.05;100.00;99337.63;5024482;28;20486;-71
2023/02/12 08:28:34;;;;;;;96.55;51.70;;;6.10;99.90;;;5.07;100.00;99325.16;5024840;28;20459;-73
2023/02/12 08:31:02;;;;;;;94.25;50.85;;;6.10;99.90;;;5.10;100.00;99324.03;5022569;28;20435;-73
2023/02/12 08:33:29;;;;;;;87.25;47.13;;;6.10;99.90;;;5.15;100.00;99330.41;5020849;28;20401;-72
2023/02/12 08:36:01;;;;;;;83.35;46.33;;;6.20;99.90;;;5.23;100.00;99332.19;5021111;28;20488;-72
2023/02/12 08:38:27;;;;;;;84.70;45.47;;;6.30;99.90;;;5.27;100.00;99331.66;5020926;28;20886;-71
2023/02/12 08:40:54;;;;;;;82.38;46.30;;;6.30;99.90;;;5.34;100.00;99337.88;5020663;28;20420;-73
2023/02/12 08:43:20;;;;;;;80.07;43.90;;;6.40;99.90;;;5.41;100.00;99338.81;5022772;28;20408;-73
2023/02/12 08:45:46;;;;;;;88.03;47.90;;;6.40;99.90;;;5.47;100.00;99337.34;5020693;28;20412;-72
2023/02/12 08:48:11;;;;;;;77.63;45.78;;;6.50;99.90;;;5.52;100.00;99339.44;5021998;28;20418;-74
2023/02/12 08:50:39;;;;;;;70.00;41.95;;;6.50;99.90;;;5.59;100.00;99343.03;5025723;28;20399;-73
2023/02/12 08:53:06;;;;;;;80.25;46.85;;;6.60;99.90;;;5.63;100.00;99345.16;5034106;28;20919;-76
2023/02/12 08:55:32;;;;;;;80.50;46.17;;;6.70;99.90;;;5.70;100.00;99348.75;5034343;28;20430;-76
2023/02/12 08:57:58;;;;;;;78.70;44.42;;;6.70;99.90;;;5.73;100.00;99343.13;5030313;28;20430;-75
2023/02/12 09:00:24;;;;;;;72.25;42.85;;;6.80;99.90;;;5.76;100.00;99345.41;5030004;28;20473;-75
2023/02/12 09:02:50;;;;;;;70.05;42.45;;;6.80;99.90;;;5.82;100.00;99338.66;5031557;28;20411;-76
2023/02/12 09:05:16;;;;;;;70.82;43.35;;;6.90;99.90;;;5.84;100.00;99345.38;5032239;28;20414;-76
2023/02/12 09:07:43;;;;;;;73.57;42.22;;;6.90;99.90;;;5.89;100.00;99349.31;5014236;28;20435;-76
2023/02/12 09:10:10;;;;;;;80.95;46.30;;;6.90;99.90;;;5.92;100.00;99348.97;5031816;28;20399;-76
2023/02/12 09:12:35;;;;;;;68.32;41.10;;;7.00;99.90;;;5.98;100.00;99350.91;5031824;28;20417;-76
2023/02/12 09:15:02;;;;;;;81.60;45.25;;;7.00;99.90;;;5.99;100.00;99353.38;5032027;28;20411;-76
2023/02/12 09:17:29;;;;;;;77.43;45.80;;;7.00;99.90;;;6.02;100.00;99352.19;5031902;28;20403;-76
2023/02/12 09:19:56;;;;;;;71.50;42.78;;;7.00;99.90;;;6.05;100.00;99347.41;5031775;28;21003;-76
2023/02/12 09:22:22;;;;;;;72.45;43.63;;;7.10;99.90;;;6.07;100.00;99347.25;5031707;28;20407;-76
2023/02/12 09:24:49;;;;;;;81.00;46.70;;;7.10;99.90;;;6.09;100.00;99343.44;5031699;28;20548;-76
2023/02/12 09:27:15;;;;;;;73.35;44.45;;;7.10;99.90;;;6.13;100.00;99342.09;5031796;28;20411;-76
2023/02/12 09:29:41;;;;;;;72.05;42.88;;;7.20;99.90;;;6.18;100.00;99342.38;5013975;28;20820;-76
2023/02/12 09:32:08;;;;;;;83.70;49.13;;;7.20;99.90;;;6.19;100.00;99351.09;5031374;28;20429;-75
2023/02/12 09:34:34;;;;;;;66.72;40.70;;;7.20;99.90;;;6.24;100.00;99355.84;5031612;28;20494;-76
2023/02/12 09:37:00;;;;;;;69.27;42.83;;;7.20;99.90;;;6.24;100.00;99359.28;5031573;28;20490;-76
2023/02/12 09:39:29;;;;;;;69.40;40.25;;;7.30;99.90;;;6.26;100.00;99356.47;5031550;28;20415;-76
2023/02/12 09:42:20;;;;;;;69.97;39.88;;;7.30;99.90;;;6.32;100.00;99358.41;5031289;28;20785;-75
2023/02/12 09:44:58;;;;;;;56.28;34.03;;;7.30;99.90;;;6.34;100.00;99364.31;5031372;28;20406;-76
2023/02/12 09:47:30;;;;;;;67.57;38.47;;;7.30;99.90;;;6.35;100.00;99358.06;5031274;28;20404;-76
2023/02/12 09:50:12;;;;;;;63.20;36.50;;;7.40;99.90;;;6.40;100.00;99348.66;5031308;28;20409;-77
2023/02/12 09:52:39;;;;;;;59.97;34.92;;;7.40;99.90;;;6.45;100.00;99354.22;5031086;28;20406;-76
2023/02/12 09:55:10;;;;;;;54.72;32.53;;;7.40;99.90;;;6.49;100.00;99352.03;5031206;28;20419;-76
2023/02/12 09:57:37;;;;;;;60.60;33.70;;;7.50;99.90;;;6.57;100.00;99358.06;5031332;28;20486;-76
2023/02/12 10:00:07;;;;;;;57.78;33.92;;;7.60;99.90;;;6.68;100.00;99356.81;5031029;28;20494;-76
2023/02/12 10:02:35;;;;;;;46.85;28.65;;;7.70;99.90;;;6.75;100.00;99356.94;5030752;28;20403;-76
2023/02/12 10:05:02;;;;;;;43.92;25.77;;;7.70;99.90;;;6.85;100.00;99346.94;5030550;28;20403;-75
2023/02/12 10:08:08;;;;;;;38.78;23.75;;;7.80;99.90;;;6.90;100.00;99344.63;5031006;28;20446;-76
2023/02/12 10:10:51;;;;;;;29.20;19.17;;;7.90;99.90;;;6.97;100.00;99351.63;5030679;28;20952;-75
2023/02/12 10:13:35;;;;;;;37.38;23.00;;;8.00;99.90;;;7.06;100.00;99357.63;5012822;28;20783;-76
2023/02/12 10:16:11;;;;;;;34.83;21.33;;;8.10;99.90;;;7.12;100.00;99350.81;5030922;28;20411;-75
2023/02/12 10:19:04;;;;;;;31.95;20.15;;;8.10;99.90;;;7.16;100.00;99349.44;5030954;28;20414;-76
2023/02/12 10:21:46;;;;;;;32.58;20.30;;;8.10;99.90;;;7.19;100.00;99352.53;5030545;28;20422;-75
2023/02/12 10:24:35;;;;;;;34.30;20.77;;;8.10;99.90;;;7.21;100.00;99350.56;5030750;28;20399;-75
2023/02/12 10:27:10;;;;;;;36.57;22.73;;;8.20;99.90;;;7.13;100.00;99347.19;5030747;28;20396;-74